createdAt,value
2019-01-10T00:00:18.142Z,1.67
2019-01-10T00:02:45.197Z,1.53
2019-01-10T00:05:12.641Z,1.47
2019-01-10T00:07:39.978Z,1.57
2019-01-10T00:10:08.073Z,1.77
2019-01-10T00:12:39.426Z,1.70
2019-01-10T00:15:06.596Z,1.20
2019-01-10T00:17:33.472Z,1.60
2019-01-10T00:20:00.540Z,1.50
2019-01-10T00:22:27.297Z,1.70
2019-01-10T00:24:54.257Z,1.67
2019-01-10T00:27:21.012Z,1.40
2019-01-10T00:29:47.990Z,1.70
2019-01-10T00:32:14.846Z,1.60
2019-01-10T00:34:41.856Z,1.60
2019-01-10T00:37:08.705Z,1.60
2019-01-10T00:39:35.855Z,1.50
2019-01-10T00:42:02.744Z,1.40
2019-01-10T00:44:29.784Z,1.50
2019-01-10T00:46:56.518Z,1.27
2019-01-10T00:49:23.305Z,1.50
2019-01-10T00:51:50.038Z,1.40
2019-01-10T00:54:16.775Z,1.40
2019-01-10T00:56:43.502Z,1.43
2019-01-10T00:59:10.385Z,1.70
2019-01-10T01:01:37.566Z,1.40
2019-01-10T01:04:04.464Z,1.40
2019-01-10T01:06:31.408Z,1.60
2019-01-10T01:08:58.282Z,1.50
2019-01-10T01:11:25.144Z,1.40
2019-01-10T01:13:52.445Z,1.50
2019-01-10T01:16:19.206Z,1.40
2019-01-10T01:18:45.956Z,1.30
2019-01-10T01:21:13.005Z,1.30
2019-01-10T01:23:39.902Z,1.27
2019-01-10T01:26:07.084Z,1.07
2019-01-10T01:28:34.060Z,1.27
2019-01-10T01:31:01.048Z,1.30
2019-01-10T01:33:27.776Z,1.13
2019-01-10T01:35:54.674Z,1.40
2019-01-10T01:38:21.563Z,1.20
2019-01-10T01:40:48.441Z,1.20
2019-01-10T01:43:15.265Z,1.30
2019-01-10T01:45:42.018Z,1.30
2019-01-10T01:48:08.741Z,1.40
2019-01-10T01:50:35.686Z,1.40
2019-01-10T01:53:02.878Z,1.10
2019-01-10T01:55:29.720Z,1.30
2019-01-10T01:57:56.681Z,1.20
2019-01-10T02:00:23.918Z,1.30
2019-01-10T02:02:50.874Z,1.03
2019-01-10T02:05:17.705Z,1.17
2019-01-10T02:07:44.650Z,1.20
2019-01-10T02:10:22.613Z,1.10
2019-01-10T02:12:49.566Z,1.10
2019-01-10T02:15:16.501Z,1.10
2019-01-10T02:17:48.912Z,1.17
2019-01-10T02:20:12.985Z,1.10
2019-01-10T02:22:39.924Z,1.10
2019-01-10T02:25:07.632Z,1.10
2019-01-10T02:31:02.078Z,1.20
2019-01-10T02:33:28.844Z,1.20
2019-01-10T02:35:55.569Z,1.00
2019-01-10T02:38:22.412Z,1.30
2019-01-10T02:40:49.407Z,1.17
2019-01-10T02:43:26.179Z,1.30
2019-01-10T02:45:45.017Z,1.30
2019-01-10T02:48:11.752Z,1.10
2019-01-10T02:50:38.972Z,1.20
2019-01-10T02:53:05.719Z,1.00
2019-01-10T02:55:33.088Z,0.90
2019-01-10T02:57:59.820Z,0.90
2019-01-10T03:00:26.564Z,1.10
2019-01-10T03:02:53.565Z,1.10
2019-01-10T03:05:20.812Z,1.10
2019-01-10T03:07:47.644Z,0.90
2019-01-10T03:10:16.519Z,0.90
2019-01-10T03:12:43.476Z,0.90
2019-01-10T03:15:10.399Z,1.00
2019-01-10T03:17:37.241Z,1.00
2019-01-10T03:20:05.804Z,1.00
2019-01-10T03:22:32.533Z,1.00
2019-01-10T03:24:59.264Z,0.90
2019-01-10T03:27:26.256Z,1.03
2019-01-10T03:29:53.128Z,0.93
2019-01-10T03:32:19.857Z,0.90
2019-01-10T03:34:46.635Z,0.90
2019-01-10T03:37:13.457Z,1.03
2019-01-10T03:39:40.432Z,0.90
2019-01-10T03:42:07.241Z,1.00
2019-01-10T03:44:34.701Z,0.93
2019-01-10T03:47:01.623Z,0.93
2019-01-10T03:49:28.348Z,0.90
2019-01-10T03:51:55.174Z,0.93
2019-01-10T03:54:21.943Z,1.50
2019-01-10T03:56:48.928Z,1.20
2019-01-10T03:59:15.699Z,1.13
2019-01-10T04:01:42.568Z,1.10
2019-01-10T04:04:09.292Z,1.00
2019-01-10T04:06:36.177Z,1.77
2019-01-10T04:09:06.273Z,1.20
2019-01-10T04:11:33.288Z,1.10
2019-01-10T04:14:00.114Z,1.20
2019-01-10T04:16:27.092Z,1.00
2019-01-10T04:18:53.920Z,1.00
2019-01-10T04:21:20.655Z,0.90
2019-01-10T04:23:47.396Z,1.00
2019-01-10T04:26:14.133Z,0.97
2019-01-10T04:28:40.875Z,1.10
2019-01-10T04:31:07.638Z,1.10
2019-01-10T04:33:34.389Z,1.10
2019-01-10T04:36:01.127Z,0.97
2019-01-10T04:38:27.978Z,1.00
2019-01-10T04:40:54.748Z,1.00
2019-01-10T04:43:21.465Z,1.30
2019-01-10T04:45:48.231Z,1.00
2019-01-10T04:48:15.056Z,1.03
2019-01-10T04:50:41.794Z,0.90
2019-01-10T04:53:08.696Z,1.00
2019-01-10T04:55:35.697Z,1.00
2019-01-10T04:58:02.427Z,0.93
2019-01-10T05:00:29.252Z,0.97
2019-01-10T05:02:56.337Z,0.80
2019-01-10T05:05:23.207Z,1.00
2019-01-10T05:07:50.068Z,1.10
2019-01-10T05:10:16.897Z,1.20
2019-01-10T05:12:43.761Z,1.10
2019-01-10T05:15:11.017Z,1.10
2019-01-10T05:17:37.884Z,0.90
2019-01-10T05:20:06.557Z,0.90
2019-01-10T05:22:33.719Z,1.30
2019-01-10T05:25:00.712Z,0.83
2019-01-10T05:27:27.444Z,1.00
2019-01-10T05:30:02.814Z,1.20
2019-01-10T05:32:39.665Z,1.00
2019-01-10T05:35:06.888Z,1.20
2019-01-10T05:37:33.946Z,1.10
2019-01-10T05:40:00.692Z,1.10
2019-01-10T05:42:27.698Z,1.00
2019-01-10T05:44:54.428Z,0.90
2019-01-10T05:47:21.145Z,1.00
2019-01-10T05:49:47.977Z,1.30
2019-01-10T05:52:14.946Z,1.23
2019-01-10T05:54:41.660Z,1.10
2019-01-10T05:57:08.465Z,2.50
2019-01-10T05:59:35.343Z,1.23
2019-01-10T06:02:02.522Z,1.20
2019-01-10T06:04:29.279Z,1.40
2019-01-10T06:06:56.344Z,1.10
2019-01-10T06:09:23.197Z,1.40
2019-01-10T06:11:49.926Z,1.40
2019-01-10T06:14:16.681Z,1.30
2019-01-10T06:16:45.207Z,1.20
2019-01-10T06:19:12.044Z,1.17
2019-01-10T06:21:39.114Z,1.33
2019-01-10T06:24:05.949Z,1.20
2019-01-10T06:26:32.665Z,1.23
2019-01-10T06:28:59.417Z,1.50
2019-01-10T06:31:26.137Z,1.40
2019-01-10T06:33:53.093Z,1.40
2019-01-10T06:36:19.816Z,1.00
2019-01-10T06:38:46.540Z,1.17
2019-01-10T06:41:13.276Z,1.30
2019-01-10T06:43:40.228Z,1.10
2019-01-10T06:46:07.066Z,1.20
2019-01-10T06:48:33.796Z,1.00
2019-01-10T06:51:00.571Z,1.20
2019-01-10T06:53:27.297Z,1.20
2019-01-10T06:55:54.044Z,1.27
2019-01-10T06:58:20.768Z,1.10
2019-01-10T07:00:47.614Z,1.10
2019-01-10T07:03:14.344Z,1.07
2019-01-10T07:05:41.071Z,1.10
2019-01-10T07:08:07.791Z,1.10
2019-01-10T07:10:34.656Z,1.20
2019-01-10T07:13:01.372Z,1.20
2019-01-10T07:15:28.103Z,1.20
2019-01-10T07:17:54.846Z,1.40
2019-01-10T07:20:21.692Z,1.17
2019-01-10T07:22:49.594Z,1.37
2019-01-10T07:25:16.420Z,1.20
2019-01-10T07:27:43.250Z,1.20
2019-01-10T07:30:12.294Z,1.10
2019-01-10T07:32:39.136Z,1.13
2019-01-10T07:35:10.594Z,1.30
2019-01-10T07:37:37.417Z,1.20
2019-01-10T07:40:08.020Z,1.20
2019-01-10T07:42:34.853Z,1.10
2019-01-10T07:45:07.800Z,1.20
2019-01-10T07:47:47.040Z,1.27
2019-01-10T07:50:14.348Z,1.30
2019-01-10T07:52:41.305Z,1.30
2019-01-10T07:55:08.246Z,1.30
2019-01-10T07:57:35.089Z,1.40
2019-01-10T08:00:02.066Z,1.40
2019-01-10T08:02:28.956Z,1.20
2019-01-10T08:04:55.680Z,1.20
2019-01-10T08:07:22.525Z,1.30
2019-01-10T08:09:49.453Z,1.50
2019-01-10T08:12:16.424Z,1.70
2019-01-10T08:14:43.169Z,1.33
2019-01-10T08:17:15.886Z,1.60
2019-01-10T08:19:38.677Z,1.43
2019-01-10T08:22:05.505Z,1.60
2019-01-10T08:24:32.256Z,1.40
2019-01-10T08:26:59.048Z,1.40
2019-01-10T08:29:25.812Z,1.50
2019-01-10T08:31:52.645Z,1.63
2019-01-10T08:34:19.473Z,1.40
2019-01-10T08:36:46.192Z,1.40
2019-01-10T08:39:12.916Z,1.50
2019-01-10T08:41:39.649Z,1.20
2019-01-10T08:44:06.488Z,1.40
2019-01-10T08:46:33.452Z,1.70
2019-01-10T08:49:00.188Z,1.50
2019-01-10T08:51:26.957Z,1.30
2019-01-10T08:53:54.261Z,1.40
2019-01-10T08:56:21.333Z,1.50
2019-01-10T08:58:48.176Z,1.70
2019-01-10T09:01:15.140Z,1.60
2019-01-10T09:03:41.868Z,1.40
2019-01-10T09:06:08.723Z,1.40
2019-01-10T09:08:35.525Z,1.43
2019-01-10T09:11:02.359Z,1.50
2019-01-10T09:13:29.208Z,1.30
2019-01-10T09:15:56.086Z,1.40
2019-01-10T09:18:22.813Z,1.10
2019-01-10T09:20:49.549Z,1.20
2019-01-10T09:23:16.284Z,1.50
2019-01-10T09:25:43.014Z,1.20
2019-01-10T09:28:09.983Z,1.20
2019-01-10T09:30:38.667Z,1.20
2019-01-10T09:33:05.548Z,1.10
2019-01-10T09:35:32.512Z,1.10
2019-01-10T09:37:59.676Z,1.23
2019-01-10T09:40:26.575Z,1.03
2019-01-10T09:42:53.520Z,1.10
2019-01-10T09:45:22.291Z,1.00
2019-01-10T09:47:49.133Z,1.20
2019-01-10T09:50:16.796Z,1.10
2019-01-10T09:52:43.952Z,1.20
2019-01-10T09:55:10.981Z,1.10
2019-01-10T09:57:37.757Z,1.00
2019-01-10T10:00:08.824Z,1.10
2019-01-10T10:02:35.760Z,2.70
2019-01-10T10:05:02.966Z,2.87
2019-01-10T10:07:29.792Z,1.13
2019-01-10T10:09:56.849Z,1.20
2019-01-10T10:12:23.679Z,1.20
2019-01-10T10:14:50.572Z,1.03
2019-01-10T10:17:17.536Z,1.10
2019-01-10T10:19:44.272Z,1.20
2019-01-10T10:22:11.128Z,1.10
2019-01-10T10:24:37.914Z,0.90
2019-01-10T10:27:04.788Z,1.03
2019-01-10T10:29:31.580Z,1.20
2019-01-10T10:31:58.429Z,1.20
2019-01-10T10:34:25.157Z,1.10
2019-01-10T10:36:52.089Z,0.90
2019-01-10T10:39:18.914Z,1.00
2019-01-10T10:41:46.103Z,1.20
2019-01-10T10:44:12.944Z,1.10
2019-01-10T10:46:39.676Z,1.13
2019-01-10T10:49:06.517Z,1.10
2019-01-10T10:51:33.340Z,1.30
2019-01-10T10:54:00.346Z,1.27
2019-01-10T10:56:27.165Z,1.10
2019-01-10T10:58:54.020Z,1.20
2019-01-10T11:01:21.199Z,1.20
2019-01-10T11:03:48.033Z,1.17
2019-01-10T11:06:14.877Z,1.10
2019-01-10T11:08:41.691Z,2.07
2019-01-10T11:11:08.620Z,2.43
2019-01-10T11:13:35.470Z,3.23
2019-01-10T11:16:10.245Z,1.67
2019-01-10T11:18:30.936Z,1.40
2019-01-10T11:20:57.760Z,1.00
2019-01-10T11:23:24.607Z,0.97
2019-01-10T11:25:51.533Z,1.67
2019-01-10T11:28:18.377Z,3.20
2019-01-10T11:30:45.205Z,1.57
2019-01-10T11:33:11.924Z,1.40
2019-01-10T11:35:38.661Z,1.20
2019-01-10T11:38:05.387Z,1.10
2019-01-10T11:40:32.137Z,1.40
2019-01-10T11:42:59.073Z,1.00
2019-01-10T11:45:26.852Z,1.40
2019-01-10T11:47:53.684Z,1.17
2019-01-10T11:50:20.618Z,1.30
2019-01-10T11:52:47.672Z,1.40
2019-01-10T11:55:14.633Z,1.30
2019-01-10T11:57:41.871Z,1.47
2019-01-10T12:00:15.480Z,1.50
2019-01-10T12:02:42.308Z,1.40
2019-01-10T12:05:09.248Z,1.40
2019-01-10T12:07:36.073Z,1.30
2019-01-10T12:10:03.619Z,1.40
2019-01-10T12:12:30.340Z,1.57
2019-01-10T12:14:57.228Z,1.50
2019-01-10T12:17:24.313Z,1.40
2019-01-10T12:19:51.070Z,1.40
2019-01-10T12:22:17.917Z,1.40
2019-01-10T12:24:44.949Z,1.50
2019-01-10T12:27:11.672Z,1.40
2019-01-10T12:29:38.540Z,1.33
2019-01-10T12:32:05.720Z,1.50
2019-01-10T12:34:32.557Z,1.50
2019-01-10T12:37:00.462Z,1.90
2019-01-10T12:39:27.562Z,1.30
2019-01-10T12:41:54.445Z,1.42
2019-01-10T12:44:21.256Z,1.60
2019-01-10T12:46:48.121Z,1.70
2019-01-10T12:49:14.852Z,1.50
2019-01-10T12:51:41.733Z,1.37
2019-01-10T12:54:08.900Z,1.40
2019-01-10T12:56:35.649Z,1.60
2019-01-10T12:59:02.494Z,1.70
2019-01-10T13:01:29.624Z,1.23
2019-01-10T13:03:56.448Z,1.40
2019-01-10T13:06:23.192Z,1.27
2019-01-10T13:08:49.928Z,1.60
2019-01-10T13:11:16.781Z,1.30
2019-01-10T13:13:44.673Z,1.30
2019-01-10T13:16:11.568Z,1.23
2019-01-10T13:18:38.429Z,1.20
2019-01-10T13:21:05.376Z,1.53
2019-01-10T13:23:32.124Z,1.50
2019-01-10T13:25:59.672Z,1.50
2019-01-10T13:28:26.991Z,1.67
2019-01-10T13:30:53.728Z,1.50
2019-01-10T13:33:20.475Z,1.60
2019-01-10T13:35:47.209Z,1.63
2019-01-10T13:38:13.944Z,1.43
2019-01-10T13:40:40.709Z,1.50
2019-01-10T13:43:07.552Z,1.90
2019-01-10T13:45:34.402Z,2.00
2019-01-10T13:48:01.500Z,1.80
2019-01-10T13:50:29.564Z,1.90
2019-01-10T13:52:56.452Z,1.73
2019-01-10T13:55:23.396Z,1.80
2019-01-10T13:57:50.233Z,1.90
2019-01-10T14:00:21.892Z,1.57
2019-01-10T14:02:48.862Z,1.80
2019-01-10T14:05:16.050Z,1.80
2019-01-10T14:07:43.413Z,1.70
2019-01-10T14:10:11.318Z,1.70
2019-01-10T14:12:38.179Z,2.00
2019-01-10T14:15:07.146Z,1.60
2019-01-10T14:20:02.273Z,2.43
2019-01-10T14:22:29.148Z,1.90
2019-01-10T14:24:55.976Z,2.00
2019-01-10T14:27:22.713Z,2.83
2019-01-10T14:29:49.801Z,2.90
2019-01-10T14:32:16.729Z,3.77
2019-01-10T14:34:43.568Z,3.20
2019-01-10T14:37:10.384Z,4.20
2019-01-10T14:39:37.116Z,2.97
2019-01-10T14:42:04.057Z,3.10
2019-01-10T14:44:30.889Z,4.47
2019-01-10T14:46:57.976Z,3.87
2019-01-10T14:49:24.817Z,3.57
2019-01-10T14:51:51.752Z,3.47
2019-01-10T14:54:18.484Z,3.40
2019-01-10T14:56:45.361Z,4.27
2019-01-10T14:59:12.240Z,3.60
2019-01-10T15:01:38.957Z,1.90
2019-01-10T15:04:05.700Z,1.90
2019-01-10T15:06:32.575Z,2.00
2019-01-10T15:08:59.417Z,1.70
2019-01-10T15:11:26.837Z,1.40
2019-01-10T15:13:54.073Z,1.60
2019-01-10T15:16:21.207Z,1.50
2019-01-10T15:18:48.039Z,1.57
2019-01-10T15:21:15.045Z,1.30
2019-01-10T15:23:42.010Z,1.60
2019-01-10T15:26:08.816Z,1.73
2019-01-10T15:28:35.548Z,1.83
2019-01-10T15:31:02.484Z,3.33
2019-01-10T15:33:29.233Z,2.30
2019-01-10T15:35:56.072Z,2.13
2019-01-10T15:38:23.082Z,1.90
2019-01-10T15:40:50.277Z,1.90
2019-01-10T15:43:17.044Z,1.50
2019-01-10T15:45:43.798Z,1.40
2019-01-10T15:48:10.631Z,1.50
2019-01-10T15:50:37.709Z,1.47
2019-01-10T15:53:04.669Z,1.40
2019-01-10T15:55:31.876Z,2.47
2019-01-10T15:57:58.769Z,1.60
2019-01-10T16:00:25.849Z,1.60
2019-01-10T16:02:52.804Z,1.70
2019-01-10T16:05:20.093Z,2.10
2019-01-10T16:07:47.074Z,1.90
2019-01-10T16:10:15.137Z,1.90
2019-01-10T16:12:42.211Z,2.10
2019-01-10T16:15:11.345Z,1.90
2019-01-10T16:17:38.341Z,1.50
2019-01-10T16:20:05.824Z,1.80
2019-01-10T16:22:32.694Z,1.60
2019-01-10T16:24:59.566Z,1.50
2019-01-10T16:27:26.313Z,1.90
2019-01-10T16:29:53.609Z,2.50
2019-01-10T16:32:20.916Z,2.60
2019-01-10T16:34:47.734Z,1.43
2019-01-10T16:37:14.948Z,2.00
2019-01-10T16:39:42.419Z,4.07
2019-01-10T16:42:09.180Z,3.50
2019-01-10T16:44:36.121Z,3.00
2019-01-10T16:47:03.333Z,3.30
2019-01-10T16:49:30.175Z,2.80
2019-01-10T16:51:57.036Z,5.00
2019-01-10T16:54:23.850Z,1.90
2019-01-10T16:56:50.959Z,1.50
2019-01-10T16:59:17.798Z,1.90
2019-01-10T17:01:44.797Z,1.80
2019-01-10T17:04:11.541Z,1.70
2019-01-10T17:06:38.398Z,1.70
2019-01-10T17:09:07.189Z,2.17
2019-01-10T17:11:34.222Z,2.80
2019-01-10T17:14:01.202Z,3.20
2019-01-10T17:16:28.078Z,2.50
2019-01-10T17:18:55.071Z,5.87
2019-01-10T17:21:22.317Z,2.93
2019-01-10T17:23:49.082Z,3.10
2019-01-10T17:26:16.001Z,2.80
2019-01-10T17:28:43.126Z,1.50
2019-01-10T17:31:09.885Z,2.10
2019-01-10T17:33:36.645Z,2.97
2019-01-10T17:36:04.740Z,2.30
2019-01-10T17:38:31.600Z,13.80
2019-01-10T17:40:58.481Z,4.80
2019-01-10T17:43:25.231Z,5.70
2019-01-10T17:45:52.685Z,5.60
2019-01-10T17:48:19.651Z,5.70
2019-01-10T17:50:46.512Z,2.20
2019-01-10T17:53:13.351Z,2.10
2019-01-10T17:55:40.229Z,1.80
2019-01-10T17:58:07.104Z,1.70
2019-01-10T18:00:33.844Z,1.50
2019-01-10T18:03:00.617Z,1.97
2019-01-10T18:05:27.469Z,1.50
2019-01-10T18:07:54.496Z,1.40
2019-01-10T18:10:21.570Z,1.57
2019-01-10T18:12:48.645Z,1.40
2019-01-10T18:15:17.271Z,2.13
2019-01-10T18:17:50.105Z,2.00
2019-01-10T18:20:15.393Z,1.30
2019-01-10T18:22:42.270Z,1.57
2019-01-10T18:25:09.541Z,1.50
2019-01-10T18:27:36.384Z,1.50
2019-01-10T18:30:05.390Z,1.70
2019-01-10T18:32:32.129Z,4.30
2019-01-10T18:34:59.220Z,3.10
2019-01-10T18:37:26.064Z,1.70
2019-01-10T18:39:52.825Z,1.37
2019-01-10T18:42:19.705Z,1.23
2019-01-10T18:44:46.739Z,2.27
2019-01-10T18:47:14.016Z,1.67
2019-01-10T18:49:40.769Z,1.70
2019-01-10T18:52:07.664Z,1.80
2019-01-10T18:54:35.853Z,1.70
2019-01-10T18:57:02.860Z,1.70
2019-01-10T18:59:29.928Z,2.10
2019-01-10T19:01:57.666Z,1.90
2019-01-10T19:04:24.798Z,3.30
2019-01-10T19:06:51.904Z,3.77
2019-01-10T19:09:18.686Z,3.70
2019-01-10T19:11:45.584Z,2.83
2019-01-10T19:14:12.689Z,2.80
2019-01-10T19:16:39.560Z,2.20
2019-01-10T19:19:06.309Z,2.10
2019-01-10T19:21:33.206Z,2.27
2019-01-10T19:23:59.951Z,2.17
2019-01-10T19:26:27.061Z,2.63
2019-01-10T19:28:54.052Z,2.30
2019-01-10T19:31:20.920Z,2.37
2019-01-10T19:33:47.637Z,2.70
2019-01-10T19:36:14.483Z,2.17
2019-01-10T19:38:41.572Z,1.90
2019-01-10T19:41:08.516Z,2.30
2019-01-10T19:43:35.494Z,2.00
2019-01-10T19:46:02.632Z,1.97
2019-01-10T19:48:29.709Z,2.10
2019-01-10T19:50:56.526Z,1.80
2019-01-10T19:53:23.681Z,5.33
2019-01-10T19:55:50.701Z,1.83
2019-01-10T19:58:17.533Z,3.10
2019-01-10T20:00:47.304Z,9.33
2019-01-10T20:03:14.232Z,5.67
2019-01-10T20:05:41.198Z,2.43
2019-01-10T20:08:08.532Z,1.60
2019-01-10T20:10:35.433Z,2.20
2019-01-10T20:13:02.189Z,1.50
2019-01-10T20:15:29.132Z,1.70
2019-01-10T20:17:56.196Z,2.10
2019-01-10T20:20:31.617Z,1.80
2019-01-10T20:22:58.905Z,2.57
2019-01-10T20:25:25.802Z,5.20
2019-01-10T20:27:52.777Z,3.60
2019-01-10T20:30:19.979Z,2.30
2019-01-10T20:32:46.893Z,2.00
2019-01-10T20:35:14.526Z,1.70
2019-01-10T20:37:41.472Z,2.90
2019-01-10T20:40:09.448Z,2.20
2019-01-10T20:42:36.328Z,1.87
2019-01-10T20:45:04.305Z,1.60
2019-01-10T20:47:31.052Z,1.80
2019-01-10T20:49:58.074Z,1.30
2019-01-10T20:52:25.093Z,1.70
2019-01-10T20:54:52.238Z,2.00
2019-01-10T20:57:19.054Z,2.30
2019-01-10T20:59:45.965Z,2.17
2019-01-10T21:02:12.737Z,2.50
2019-01-10T21:04:51.286Z,2.10
2019-01-10T21:07:18.353Z,2.10
2019-01-10T21:09:45.120Z,1.80
2019-01-10T21:12:11.993Z,2.40
2019-01-10T21:14:39.006Z,2.60
2019-01-10T21:17:05.975Z,2.10
2019-01-10T21:19:32.758Z,2.80
2019-01-10T21:21:59.874Z,2.87
2019-01-10T21:24:26.864Z,2.57
2019-01-10T21:26:53.713Z,3.17
2019-01-10T21:29:23.774Z,2.63
2019-01-10T21:31:50.770Z,3.13
2019-01-10T21:34:18.197Z,3.00
2019-01-10T21:36:45.208Z,3.17
2019-01-10T21:39:12.226Z,3.90
2019-01-10T21:41:39.109Z,4.13
2019-01-10T21:44:06.077Z,3.97
2019-01-10T21:46:32.929Z,2.83
2019-01-10T21:48:59.797Z,1.60
2019-01-10T21:51:26.544Z,1.67
2019-01-10T21:53:53.504Z,1.20
2019-01-10T21:56:20.578Z,2.43
2019-01-10T21:58:47.297Z,1.70
2019-01-10T22:01:14.633Z,1.47
2019-01-10T22:03:41.405Z,2.10
2019-01-10T22:06:08.610Z,1.40
2019-01-10T22:08:35.594Z,1.20
2019-01-10T22:11:02.520Z,1.40
2019-01-10T22:13:29.270Z,1.50
2019-01-10T22:15:56.518Z,1.40
2019-01-10T22:18:23.548Z,1.17
2019-01-10T22:20:50.380Z,1.00
2019-01-10T22:23:17.273Z,1.03
2019-01-10T22:25:45.255Z,1.20
2019-01-10T22:28:12.297Z,1.63
2019-01-10T22:30:39.146Z,1.40
2019-01-10T22:33:05.895Z,1.40
2019-01-10T22:35:32.749Z,1.60
2019-01-10T22:37:59.746Z,1.93
2019-01-10T22:40:26.564Z,2.00
2019-01-10T22:42:53.384Z,1.60
2019-01-10T22:45:20.236Z,1.73
2019-01-10T22:47:47.237Z,1.60
2019-01-10T22:50:16.804Z,2.70
2019-01-10T22:52:43.905Z,1.90
2019-01-10T22:55:11.936Z,2.10
2019-01-10T22:57:38.864Z,1.30
2019-01-10T23:00:19.058Z,1.83
2019-01-10T23:02:46.443Z,1.60
2019-01-10T23:05:13.285Z,1.00
2019-01-10T23:07:40.397Z,1.90
2019-01-10T23:10:08.808Z,1.40
2019-01-10T23:12:35.777Z,1.30
2019-01-10T23:15:27.952Z,1.47
2019-01-10T23:17:54.801Z,1.43
2019-01-10T23:20:21.804Z,1.80
2019-01-10T23:22:48.657Z,1.77
2019-01-10T23:25:16.238Z,2.10
2019-01-10T23:27:45.322Z,1.93
2019-01-10T23:30:12.267Z,1.90
2019-01-10T23:32:39.261Z,1.80
2019-01-10T23:35:06.214Z,2.00
2019-01-10T23:37:33.202Z,1.93
2019-01-10T23:39:59.962Z,1.60
2019-01-10T23:42:26.937Z,1.83
2019-01-10T23:44:53.826Z,1.80
2019-01-10T23:47:20.793Z,1.80
2019-01-10T23:49:47.616Z,2.00
2019-01-10T23:52:14.451Z,2.10
2019-01-10T23:54:41.322Z,1.70
2019-01-10T23:57:08.045Z,2.00
2019-01-10T23:59:35.429Z,1.77
